sensor_id;sensor_type;location;lat;lon;timestamp;temperature;humidity
83146;DHT22;73037;51.110;4.706;2023-11-19T00:00:07;13.00;84.70
83146;DHT22;73037;51.110;4.706;2023-11-19T00:02:38;13.10;84.80
83146;DHT22;73037;51.110;4.706;2023-11-19T00:05:04;13.10;84.70
83146;DHT22;73037;51.110;4.706;2023-11-19T00:07:29;13.10;84.70
83146;DHT22;73037;51.110;4.706;2023-11-19T00:09:55;13.00;84.80
83146;DHT22;73037;51.110;4.706;2023-11-19T00:12:21;13.00;84.80
83146;DHT22;73037;51.110;4.706;2023-11-19T00:14:47;13.00;84.90
83146;DHT22;73037;51.110;4.706;2023-11-19T00:17:13;13.00;84.70
83146;DHT22;73037;51.110;4.706;2023-11-19T00:19:39;12.90;84.80
83146;DHT22;73037;51.110;4.706;2023-11-19T00:22:04;12.90;85.00
83146;DHT22;73037;51.110;4.706;2023-11-19T00:24:30;12.90;85.00
83146;DHT22;73037;51.110;4.706;2023-11-19T00:26:56;12.80;85.00
83146;DHT22;73037;51.110;4.706;2023-11-19T00:29:22;12.90;85.00
83146;DHT22;73037;51.110;4.706;2023-11-19T00:31:47;12.80;85.10
83146;DHT22;73037;51.110;4.706;2023-11-19T00:34:13;12.80;85.10
83146;DHT22;73037;51.110;4.706;2023-11-19T00:36:39;12.80;85.10
83146;DHT22;73037;51.110;4.706;2023-11-19T00:39:04;12.90;85.00
83146;DHT22;73037;51.110;4.706;2023-11-19T00:41:31;12.90;84.90
83146;DHT22;73037;51.110;4.706;2023-11-19T00:43:56;12.90;85.00
83146;DHT22;73037;51.110;4.706;2023-11-19T00:46:22;12.90;85.00
83146;DHT22;73037;51.110;4.706;2023-11-19T00:48:48;12.90;85.00
83146;DHT22;73037;51.110;4.706;2023-11-19T00:51:13;12.90;84.90
83146;DHT22;73037;51.110;4.706;2023-11-19T00:53:39;12.90;85.00
83146;DHT22;73037;51.110;4.706;2023-11-19T00:56:05;13.00;84.80
83146;DHT22;73037;51.110;4.706;2023-11-19T00:58:31;12.90;84.90
83146;DHT22;73037;51.110;4.706;2023-11-19T01:00:57;13.00;85.00
83146;DHT22;73037;51.110;4.706;2023-11-19T01:03:23;12.90;84.70
83146;DHT22;73037;51.110;4.706;2023-11-19T01:05:51;12.90;85.00
83146;DHT22;73037;51.110;4.706;2023-11-19T01:08:18;13.00;84.90
83146;DHT22;73037;51.110;4.706;2023-11-19T01:10:44;13.00;84.80
83146;DHT22;73037;51.110;4.706;2023-11-19T01:13:10;13.00;84.90
83146;DHT22;73037;51.110;4.706;2023-11-19T01:15:35;13.00;84.90
83146;DHT22;73037;51.110;4.706;2023-11-19T01:18:01;13.00;84.70
83146;DHT22;73037;51.110;4.706;2023-11-19T01:20:30;13.00;84.70
83146;DHT22;73037;51.110;4.706;2023-11-19T01:22:55;13.00;84.40
83146;DHT22;73037;51.110;4.706;2023-11-19T01:25:21;13.00;84.30
83146;DHT22;73037;51.110;4.706;2023-11-19T01:27:47;12.90;84.30
83146;DHT22;73037;51.110;4.706;2023-11-19T01:30:13;12.90;83.60
83146;DHT22;73037;51.110;4.706;2023-11-19T01:32:39;12.90;84.30
83146;DHT22;73037;51.110;4.706;2023-11-19T01:35:06;12.90;84.20
83146;DHT22;73037;51.110;4.706;2023-11-19T01:37:31;12.90;84.50
83146;DHT22;73037;51.110;4.706;2023-11-19T01:39:57;12.90;84.50
83146;DHT22;73037;51.110;4.706;2023-11-19T01:42:23;12.90;84.60
83146;DHT22;73037;51.110;4.706;2023-11-19T01:44:59;12.90;84.50
83146;DHT22;73037;51.110;4.706;2023-11-19T01:47:30;12.90;84.20
83146;DHT22;73037;51.110;4.706;2023-11-19T01:49:56;12.90;84.50
83146;DHT22;73037;51.110;4.706;2023-11-19T01:52:23;12.90;84.50
83146;DHT22;73037;51.110;4.706;2023-11-19T01:54:50;12.80;84.30
83146;DHT22;73037;51.110;4.706;2023-11-19T01:57:17;12.80;84.60
83146;DHT22;73037;51.110;4.706;2023-11-19T01:59:43;12.80;84.40
83146;DHT22;73037;51.110;4.706;2023-11-19T02:02:10;12.80;84.40
83146;DHT22;73037;51.110;4.706;2023-11-19T02:04:35;12.80;84.40
83146;DHT22;73037;51.110;4.706;2023-11-19T02:07:01;12.80;84.00
83146;DHT22;73037;51.110;4.706;2023-11-19T02:09:27;12.80;84.10
83146;DHT22;73037;51.110;4.706;2023-11-19T02:11:53;12.80;84.30
83146;DHT22;73037;51.110;4.706;2023-11-19T02:14:25;12.80;84.40
83146;DHT22;73037;51.110;4.706;2023-11-19T02:16:51;12.80;84.30
83146;DHT22;73037;51.110;4.706;2023-11-19T02:19:20;12.70;84.30
83146;DHT22;73037;51.110;4.706;2023-11-19T02:21:46;12.60;84.50
83146;DHT22;73037;51.110;4.706;2023-11-19T02:24:14;12.50;84.60
83146;DHT22;73037;51.110;4.706;2023-11-19T02:26:59;12.50;83.90
83146;DHT22;73037;51.110;4.706;2023-11-19T02:29:27;12.50;84.50
83146;DHT22;73037;51.110;4.706;2023-11-19T02:31:53;12.40;84.60
83146;DHT22;73037;51.110;4.706;2023-11-19T02:34:20;12.30;84.20
83146;DHT22;73037;51.110;4.706;2023-11-19T02:36:47;12.30;84.50
83146;DHT22;73037;51.110;4.706;2023-11-19T02:39:13;12.30;84.60
83146;DHT22;73037;51.110;4.706;2023-11-19T02:41:39;12.30;84.50
83146;DHT22;73037;51.110;4.706;2023-11-19T02:44:06;12.30;84.50
83146;DHT22;73037;51.110;4.706;2023-11-19T02:46:32;12.30;84.50
83146;DHT22;73037;51.110;4.706;2023-11-19T02:48:58;12.40;84.70
83146;DHT22;73037;51.110;4.706;2023-11-19T02:51:23;12.40;84.20
83146;DHT22;73037;51.110;4.706;2023-11-19T02:53:49;12.40;84.60
83146;DHT22;73037;51.110;4.706;2023-11-19T02:56:15;12.40;84.70
83146;DHT22;73037;51.110;4.706;2023-11-19T02:58:45;12.50;84.50
83146;DHT22;73037;51.110;4.706;2023-11-19T03:01:12;12.50;84.50
83146;DHT22;73037;51.110;4.706;2023-11-19T03:03:49;12.50;84.60
83146;DHT22;73037;51.110;4.706;2023-11-19T03:06:20;12.30;84.50
83146;DHT22;73037;51.110;4.706;2023-11-19T03:08:47;12.30;84.40
83146;DHT22;73037;51.110;4.706;2023-11-19T03:11:13;12.20;84.30
83146;DHT22;73037;51.110;4.706;2023-11-19T03:13:39;12.20;84.30
83146;DHT22;73037;51.110;4.706;2023-11-19T03:16:05;12.10;84.60
83146;DHT22;73037;51.110;4.706;2023-11-19T03:18:31;12.10;84.20
83146;DHT22;73037;51.110;4.706;2023-11-19T03:20:56;12.00;84.50
83146;DHT22;73037;51.110;4.706;2023-11-19T03:23:24;12.00;84.60
83146;DHT22;73037;51.110;4.706;2023-11-19T03:25:50;12.00;84.70
83146;DHT22;73037;51.110;4.706;2023-11-19T03:28:16;12.00;84.60
83146;DHT22;73037;51.110;4.706;2023-11-19T03:30:42;12.00;84.60
83146;DHT22;73037;51.110;4.706;2023-11-19T03:33:07;11.90;84.60
83146;DHT22;73037;51.110;4.706;2023-11-19T03:35:33;11.90;84.40
83146;DHT22;73037;51.110;4.706;2023-11-19T03:37:58;11.90;84.40
83146;DHT22;73037;51.110;4.706;2023-11-19T03:40:24;11.90;84.50
83146;DHT22;73037;51.110;4.706;2023-11-19T03:42:50;11.90;84.50
83146;DHT22;73037;51.110;4.706;2023-11-19T03:45:16;11.90;84.60
83146;DHT22;73037;51.110;4.706;2023-11-19T03:47:42;11.90;84.50
83146;DHT22;73037;51.110;4.706;2023-11-19T03:50:08;11.90;84.60
83146;DHT22;73037;51.110;4.706;2023-11-19T03:52:34;11.90;84.30
83146;DHT22;73037;51.110;4.706;2023-11-19T03:55:00;11.90;84.30
83146;DHT22;73037;51.110;4.706;2023-11-19T03:57:27;11.90;84.50
83146;DHT22;73037;51.110;4.706;2023-11-19T03:59:53;11.90;84.60
83146;DHT22;73037;51.110;4.706;2023-11-19T04:02:23;11.90;84.30
83146;DHT22;73037;51.110;4.706;2023-11-19T04:04:53;11.90;84.10
83146;DHT22;73037;51.110;4.706;2023-11-19T04:07:19;11.90;84.40
83146;DHT22;73037;51.110;4.706;2023-11-19T04:09:45;11.90;84.40
83146;DHT22;73037;51.110;4.706;2023-11-19T04:12:12;11.80;83.80
83146;DHT22;73037;51.110;4.706;2023-11-19T04:14:37;11.70;84.10
83146;DHT22;73037;51.110;4.706;2023-11-19T04:17:03;11.70;84.20
83146;DHT22;73037;51.110;4.706;2023-11-19T04:19:29;11.70;84.20
83146;DHT22;73037;51.110;4.706;2023-11-19T04:21:55;11.70;83.50
83146;DHT22;73037;51.110;4.706;2023-11-19T04:24:20;11.70;83.50
83146;DHT22;73037;51.110;4.706;2023-11-19T04:26:46;11.60;84.30
83146;DHT22;73037;51.110;4.706;2023-11-19T04:29:15;11.60;83.90
83146;DHT22;73037;51.110;4.706;2023-11-19T04:31:45;11.50;83.80
83146;DHT22;73037;51.110;4.706;2023-11-19T04:34:11;11.50;83.20
83146;DHT22;73037;51.110;4.706;2023-11-19T04:36:37;11.50;83.30
83146;DHT22;73037;51.110;4.706;2023-11-19T04:39:03;11.50;84.20
83146;DHT22;73037;51.110;4.706;2023-11-19T04:41:50;11.50;84.50
83146;DHT22;73037;51.110;4.706;2023-11-19T04:44:17;11.40;84.40
83146;DHT22;73037;51.110;4.706;2023-11-19T04:46:43;11.40;84.20
83146;DHT22;73037;51.110;4.706;2023-11-19T04:49:10;11.30;84.50
83146;DHT22;73037;51.110;4.706;2023-11-19T04:51:44;11.30;84.20
83146;DHT22;73037;51.110;4.706;2023-11-19T04:54:10;11.30;84.30
83146;DHT22;73037;51.110;4.706;2023-11-19T04:56:36;11.30;84.50
83146;DHT22;73037;51.110;4.706;2023-11-19T04:59:03;11.20;83.90
83146;DHT22;73037;51.110;4.706;2023-11-19T05:01:29;11.30;84.00
83146;DHT22;73037;51.110;4.706;2023-11-19T05:03:56;11.10;84.10
83146;DHT22;73037;51.110;4.706;2023-11-19T05:06:27;11.20;84.20
83146;DHT22;73037;51.110;4.706;2023-11-19T05:08:53;11.10;84.50
83146;DHT22;73037;51.110;4.706;2023-11-19T05:11:19;11.10;83.80
83146;DHT22;73037;51.110;4.706;2023-11-19T05:13:45;11.10;84.20
83146;DHT22;73037;51.110;4.706;2023-11-19T05:16:11;11.10;84.20
83146;DHT22;73037;51.110;4.706;2023-11-19T05:18:40;11.00;83.50
83146;DHT22;73037;51.110;4.706;2023-11-19T05:21:06;11.00;83.90
83146;DHT22;73037;51.110;4.706;2023-11-19T05:23:32;11.00;84.00
83146;DHT22;73037;51.110;4.706;2023-11-19T05:26:00;11.00;83.70
83146;DHT22;73037;51.110;4.706;2023-11-19T05:28:25;11.00;84.00
83146;DHT22;73037;51.110;4.706;2023-11-19T05:30:51;11.00;83.70
83146;DHT22;73037;51.110;4.706;2023-11-19T05:33:17;10.90;84.30
83146;DHT22;73037;51.110;4.706;2023-11-19T05:35:43;10.90;83.70
83146;DHT22;73037;51.110;4.706;2023-11-19T05:38:08;10.80;83.90
83146;DHT22;73037;51.110;4.706;2023-11-19T05:40:35;10.80;84.00
83146;DHT22;73037;51.110;4.706;2023-11-19T05:43:04;10.80;84.30
83146;DHT22;73037;51.110;4.706;2023-11-19T05:45:31;10.80;84.20
83146;DHT22;73037;51.110;4.706;2023-11-19T05:47:57;10.80;84.20
83146;DHT22;73037;51.110;4.706;2023-11-19T05:50:23;10.70;84.10
83146;DHT22;73037;51.110;4.706;2023-11-19T05:52:49;10.70;84.20
83146;DHT22;73037;51.110;4.706;2023-11-19T05:55:15;10.70;84.00
83146;DHT22;73037;51.110;4.706;2023-11-19T05:57:40;10.70;83.70
83146;DHT22;73037;51.110;4.706;2023-11-19T06:00:07;10.70;84.00
83146;DHT22;73037;51.110;4.706;2023-11-19T06:02:43;10.70;84.40
83146;DHT22;73037;51.110;4.706;2023-11-19T06:05:08;10.60;84.30
83146;DHT22;73037;51.110;4.706;2023-11-19T06:07:35;10.60;84.20
83146;DHT22;73037;51.110;4.706;2023-11-19T06:10:02;10.60;84.30
83146;DHT22;73037;51.110;4.706;2023-11-19T06:12:30;10.60;84.00
83146;DHT22;73037;51.110;4.706;2023-11-19T06:14:57;10.60;84.20
83146;DHT22;73037;51.110;4.706;2023-11-19T06:17:23;10.60;83.90
83146;DHT22;73037;51.110;4.706;2023-11-19T06:19:51;10.70;84.40
83146;DHT22;73037;51.110;4.706;2023-11-19T06:22:17;10.70;84.00
83146;DHT22;73037;51.110;4.706;2023-11-19T06:24:43;10.80;83.70
83146;DHT22;73037;51.110;4.706;2023-11-19T06:27:08;10.80;83.50
83146;DHT22;73037;51.110;4.706;2023-11-19T06:29:34;10.80;83.60
83146;DHT22;73037;51.110;4.706;2023-11-19T06:32:00;10.90;84.20
83146;DHT22;73037;51.110;4.706;2023-11-19T06:34:26;11.00;84.10
83146;DHT22;73037;51.110;4.706;2023-11-19T06:36:51;11.00;83.50
83146;DHT22;73037;51.110;4.706;2023-11-19T06:39:18;11.00;83.60
83146;DHT22;73037;51.110;4.706;2023-11-19T06:41:48;11.00;83.40
83146;DHT22;73037;51.110;4.706;2023-11-19T06:44:14;10.90;83.10
83146;DHT22;73037;51.110;4.706;2023-11-19T06:46:40;10.80;83.10
83146;DHT22;73037;51.110;4.706;2023-11-19T06:49:05;10.80;83.50
83146;DHT22;73037;51.110;4.706;2023-11-19T06:51:33;10.80;83.60
83146;DHT22;73037;51.110;4.706;2023-11-19T06:53:59;10.70;83.50
83146;DHT22;73037;51.110;4.706;2023-11-19T06:56:25;10.70;83.40
83146;DHT22;73037;51.110;4.706;2023-11-19T06:58:51;10.70;83.70
83146;DHT22;73037;51.110;4.706;2023-11-19T07:01:17;10.70;84.20
83146;DHT22;73037;51.110;4.706;2023-11-19T07:03:45;10.70;84.30
83146;DHT22;73037;51.110;4.706;2023-11-19T07:06:11;10.70;83.90
83146;DHT22;73037;51.110;4.706;2023-11-19T07:08:39;10.60;84.00
83146;DHT22;73037;51.110;4.706;2023-11-19T07:11:04;10.60;84.20
83146;DHT22;73037;51.110;4.706;2023-11-19T07:13:30;10.60;83.70
83146;DHT22;73037;51.110;4.706;2023-11-19T07:15:56;10.60;84.10
83146;DHT22;73037;51.110;4.706;2023-11-19T07:18:22;10.60;84.20
83146;DHT22;73037;51.110;4.706;2023-11-19T07:20:48;10.60;83.70
83146;DHT22;73037;51.110;4.706;2023-11-19T07:23:14;10.70;84.20
83146;DHT22;73037;51.110;4.706;2023-11-19T07:25:43;10.60;83.70
83146;DHT22;73037;51.110;4.706;2023-11-19T07:28:15;10.60;83.60
83146;DHT22;73037;51.110;4.706;2023-11-19T07:30:42;10.60;83.90
83146;DHT22;73037;51.110;4.706;2023-11-19T07:33:07;10.60;83.80
83146;DHT22;73037;51.110;4.706;2023-11-19T07:35:33;10.70;83.80
83146;DHT22;73037;51.110;4.706;2023-11-19T07:37:59;10.70;83.70
83146;DHT22;73037;51.110;4.706;2023-11-19T07:40:25;10.80;83.80
83146;DHT22;73037;51.110;4.706;2023-11-19T07:42:51;10.80;82.70
83146;DHT22;73037;51.110;4.706;2023-11-19T07:45:17;10.90;83.50
83146;DHT22;73037;51.110;4.706;2023-11-19T07:47:43;11.00;83.70
83146;DHT22;73037;51.110;4.706;2023-11-19T07:50:10;11.00;83.70
83146;DHT22;73037;51.110;4.706;2023-11-19T07:52:37;11.00;83.60
83146;DHT22;73037;51.110;4.706;2023-11-19T07:55:02;11.10;83.30
83146;DHT22;73037;51.110;4.706;2023-11-19T07:57:28;11.10;82.80
83146;DHT22;73037;51.110;4.706;2023-11-19T07:59:59;11.10;83.10
83146;DHT22;73037;51.110;4.706;2023-11-19T08:02:26;11.10;83.10
83146;DHT22;73037;51.110;4.706;2023-11-19T08:04:52;11.10;83.10
83146;DHT22;73037;51.110;4.706;2023-11-19T08:07:20;11.10;83.30
83146;DHT22;73037;51.110;4.706;2023-11-19T08:09:46;11.20;82.50
83146;DHT22;73037;51.110;4.706;2023-11-19T08:12:12;11.30;82.70
83146;DHT22;73037;51.110;4.706;2023-11-19T08:14:40;11.40;83.20
83146;DHT22;73037;51.110;4.706;2023-11-19T08:17:05;11.40;82.40
83146;DHT22;73037;51.110;4.706;2023-11-19T08:19:32;11.50;82.70
83146;DHT22;73037;51.110;4.706;2023-11-19T08:21:57;11.50;82.50
83146;DHT22;73037;51.110;4.706;2023-11-19T08:24:23;11.40;82.40
83146;DHT22;73037;51.110;4.706;2023-11-19T08:26:49;11.40;82.50
83146;DHT22;73037;51.110;4.706;2023-11-19T08:29:14;11.50;82.60
83146;DHT22;73037;51.110;4.706;2023-11-19T08:31:40;11.50;82.10
83146;DHT22;73037;51.110;4.706;2023-11-19T08:34:06;11.70;82.50
83146;DHT22;73037;51.110;4.706;2023-11-19T08:36:34;11.70;82.40
83146;DHT22;73037;51.110;4.706;2023-11-19T08:39:00;11.90;82.30
83146;DHT22;73037;51.110;4.706;2023-11-19T08:41:26;11.90;81.50
83146;DHT22;73037;51.110;4.706;2023-11-19T08:43:52;11.90;81.30
83146;DHT22;73037;51.110;4.706;2023-11-19T08:46:18;12.00;81.60
83146;DHT22;73037;51.110;4.706;2023-11-19T08:48:44;11.90;82.40
83146;DHT22;73037;51.110;4.706;2023-11-19T08:51:10;11.90;80.10
83146;DHT22;73037;51.110;4.706;2023-11-19T08:53:36;11.90;81.40
83146;DHT22;73037;51.110;4.706;2023-11-19T08:56:01;11.90;81.70
83146;DHT22;73037;51.110;4.706;2023-11-19T08:58:28;11.90;81.30
83146;DHT22;73037;51.110;4.706;2023-11-19T09:00:54;11.90;81.80
83146;DHT22;73037;51.110;4.706;2023-11-19T09:03:20;11.90;81.70
83146;DHT22;73037;51.110;4.706;2023-11-19T09:05:46;11.90;82.30
83146;DHT22;73037;51.110;4.706;2023-11-19T09:08:12;11.90;81.20
83146;DHT22;73037;51.110;4.706;2023-11-19T09:10:40;11.90;81.90
83146;DHT22;73037;51.110;4.706;2023-11-19T09:13:14;11.90;80.90
83146;DHT22;73037;51.110;4.706;2023-11-19T09:15:40;12.00;82.00
83146;DHT22;73037;51.110;4.706;2023-11-19T09:18:07;12.00;80.30
83146;DHT22;73037;51.110;4.706;2023-11-19T09:20:33;12.00;79.40
83146;DHT22;73037;51.110;4.706;2023-11-19T09:23:04;12.00;80.50
83146;DHT22;73037;51.110;4.706;2023-11-19T09:25:30;12.00;82.00
83146;DHT22;73037;51.110;4.706;2023-11-19T09:27:56;12.00;80.60
83146;DHT22;73037;51.110;4.706;2023-11-19T09:30:22;12.00;81.10
83146;DHT22;73037;51.110;4.706;2023-11-19T09:32:48;12.10;82.00
83146;DHT22;73037;51.110;4.706;2023-11-19T09:35:14;12.10;81.90
83146;DHT22;73037;51.110;4.706;2023-11-19T09:37:40;12.10;81.70
83146;DHT22;73037;51.110;4.706;2023-11-19T09:40:06;12.10;79.80
83146;DHT22;73037;51.110;4.706;2023-11-19T09:42:42;12.10;81.40
83146;DHT22;73037;51.110;4.706;2023-11-19T09:45:13;12.10;80.00
83146;DHT22;73037;51.110;4.706;2023-11-19T09:47:43;12.20;81.70
83146;DHT22;73037;51.110;4.706;2023-11-19T09:50:09;12.20;81.50
83146;DHT22;73037;51.110;4.706;2023-11-19T09:52:35;12.20;80.20
83146;DHT22;73037;51.110;4.706;2023-11-19T09:55:01;12.20;80.20
83146;DHT22;73037;51.110;4.706;2023-11-19T09:57:31;12.20;80.50
83146;DHT22;73037;51.110;4.706;2023-11-19T09:59:58;12.30;80.20
83146;DHT22;73037;51.110;4.706;2023-11-19T10:02:24;12.50;79.70
83146;DHT22;73037;51.110;4.706;2023-11-19T10:04:53;12.50;79.90
83146;DHT22;73037;51.110;4.706;2023-11-19T10:07:19;12.40;78.40
83146;DHT22;73037;51.110;4.706;2023-11-19T10:09:46;12.40;79.20
83146;DHT22;73037;51.110;4.706;2023-11-19T10:12:13;12.30;78.90
83146;DHT22;73037;51.110;4.706;2023-11-19T10:14:40;12.30;78.30
83146;DHT22;73037;51.110;4.706;2023-11-19T10:17:07;12.40;79.30
83146;DHT22;73037;51.110;4.706;2023-11-19T10:19:33;12.40;76.80
83146;DHT22;73037;51.110;4.706;2023-11-19T10:22:05;12.30;77.90
83146;DHT22;73037;51.110;4.706;2023-11-19T10:24:32;12.30;77.80
83146;DHT22;73037;51.110;4.706;2023-11-19T10:26:59;12.30;79.30
83146;DHT22;73037;51.110;4.706;2023-11-19T10:29:26;12.30;78.90
83146;DHT22;73037;51.110;4.706;2023-11-19T10:31:58;12.40;78.20
83146;DHT22;73037;51.110;4.706;2023-11-19T10:34:28;12.50;78.90
83146;DHT22;73037;51.110;4.706;2023-11-19T10:36:55;12.60;79.00
83146;DHT22;73037;51.110;4.706;2023-11-19T10:39:21;12.80;78.70
83146;DHT22;73037;51.110;4.706;2023-11-19T10:41:49;12.90;79.50
83146;DHT22;73037;51.110;4.706;2023-11-19T10:44:31;13.10;77.30
83146;DHT22;73037;51.110;4.706;2023-11-19T10:46:59;13.20;77.70
83146;DHT22;73037;51.110;4.706;2023-11-19T10:49:25;13.20;77.20
83146;DHT22;73037;51.110;4.706;2023-11-19T10:51:52;13.20;78.60
83146;DHT22;73037;51.110;4.706;2023-11-19T10:54:19;13.20;78.40
83146;DHT22;73037;51.110;4.706;2023-11-19T10:56:51;13.30;77.60
83146;DHT22;73037;51.110;4.706;2023-11-19T10:59:20;13.10;77.50
83146;DHT22;73037;51.110;4.706;2023-11-19T11:01:48;13.00;79.00
83146;DHT22;73037;51.110;4.706;2023-11-19T11:04:22;12.90;79.60
83146;DHT22;73037;51.110;4.706;2023-11-19T11:06:48;12.80;79.70
83146;DHT22;73037;51.110;4.706;2023-11-19T11:09:15;12.90;79.80
83146;DHT22;73037;51.110;4.706;2023-11-19T11:11:46;12.90;80.50
83146;DHT22;73037;51.110;4.706;2023-11-19T11:14:13;12.80;80.10
83146;DHT22;73037;51.110;4.706;2023-11-19T11:16:46;12.90;80.00
83146;DHT22;73037;51.110;4.706;2023-11-19T11:19:15;12.90;79.20
83146;DHT22;73037;51.110;4.706;2023-11-19T11:21:43;12.70;79.60
83146;DHT22;73037;51.110;4.706;2023-11-19T11:30:10;12.70;78.80
83146;DHT22;73037;51.110;4.706;2023-11-19T11:32:56;12.70;78.40
83146;DHT22;73037;51.110;4.706;2023-11-19T11:36:01;12.70;79.00
83146;DHT22;73037;51.110;4.706;2023-11-19T11:38:40;12.80;78.70
83146;DHT22;73037;51.110;4.706;2023-11-19T11:41:23;12.80;78.50
83146;DHT22;73037;51.110;4.706;2023-11-19T11:43:54;12.80;78.70
83146;DHT22;73037;51.110;4.706;2023-11-19T11:49:07;12.80;80.20
83146;DHT22;73037;51.110;4.706;2023-11-19T11:54:09;12.90;79.00
83146;DHT22;73037;51.110;4.706;2023-11-19T11:56:38;13.00;77.40
83146;DHT22;73037;51.110;4.706;2023-11-19T11:59:19;13.00;77.80
83146;DHT22;73037;51.110;4.706;2023-11-19T12:01:58;13.00;79.00
83146;DHT22;73037;51.110;4.706;2023-11-19T12:04:26;13.00;77.70
83146;DHT22;73037;51.110;4.706;2023-11-19T12:07:23;13.00;78.70
83146;DHT22;73037;51.110;4.706;2023-11-19T12:09:56;13.00;78.60
83146;DHT22;73037;51.110;4.706;2023-11-19T12:12:32;13.10;78.10
83146;DHT22;73037;51.110;4.706;2023-11-19T12:17:37;13.30;77.70
83146;DHT22;73037;51.110;4.706;2023-11-19T12:20:05;13.30;77.30
83146;DHT22;73037;51.110;4.706;2023-11-19T12:22:38;13.30;77.20
83146;DHT22;73037;51.110;4.706;2023-11-19T12:25:06;13.20;76.30
83146;DHT22;73037;51.110;4.706;2023-11-19T12:27:33;13.10;78.50
83146;DHT22;73037;51.110;4.706;2023-11-19T12:30:02;13.10;78.80
83146;DHT22;73037;51.110;4.706;2023-11-19T12:32:43;12.90;79.60
83146;DHT22;73037;51.110;4.706;2023-11-19T12:35:10;12.80;80.20
83146;DHT22;73037;51.110;4.706;2023-11-19T12:37:47;12.70;80.00
83146;DHT22;73037;51.110;4.706;2023-11-19T12:40:23;12.60;81.30
83146;DHT22;73037;51.110;4.706;2023-11-19T12:42:53;12.50;82.40
83146;DHT22;73037;51.110;4.706;2023-11-19T12:45:19;12.50;82.40
83146;DHT22;73037;51.110;4.706;2023-11-19T12:47:47;12.50;82.30
83146;DHT22;73037;51.110;4.706;2023-11-19T12:50:13;12.40;83.40
83146;DHT22;73037;51.110;4.706;2023-11-19T12:52:39;12.30;83.40
83146;DHT22;73037;51.110;4.706;2023-11-19T12:55:23;12.40;83.30
83146;DHT22;73037;51.110;4.706;2023-11-19T12:57:49;12.50;83.40
83146;DHT22;73037;51.110;4.706;2023-11-19T13:00:19;12.50;82.60
83146;DHT22;73037;51.110;4.706;2023-11-19T13:02:54;12.40;82.70
83146;DHT22;73037;51.110;4.706;2023-11-19T13:08:04;12.50;82.90
83146;DHT22;73037;51.110;4.706;2023-11-19T13:10:31;12.50;82.90
83146;DHT22;73037;51.110;4.706;2023-11-19T13:13:04;12.70;82.30
83146;DHT22;73037;51.110;4.706;2023-11-19T13:15:30;12.70;81.10
83146;DHT22;73037;51.110;4.706;2023-11-19T13:17:56;12.60;81.50
83146;DHT22;73037;51.110;4.706;2023-11-19T13:20:22;12.60;82.40
83146;DHT22;73037;51.110;4.706;2023-11-19T13:23:14;12.50;81.00
83146;DHT22;73037;51.110;4.706;2023-11-19T13:25:40;12.50;81.70
83146;DHT22;73037;51.110;4.706;2023-11-19T13:28:06;12.50;81.20
83146;DHT22;73037;51.110;4.706;2023-11-19T13:30:31;12.40;81.50
83146;DHT22;73037;51.110;4.706;2023-11-19T13:32:57;12.30;81.90
83146;DHT22;73037;51.110;4.706;2023-11-19T13:35:22;12.20;82.20
83146;DHT22;73037;51.110;4.706;2023-11-19T13:37:48;12.20;82.90
83146;DHT22;73037;51.110;4.706;2023-11-19T13:40:14;12.20;82.50
83146;DHT22;73037;51.110;4.706;2023-11-19T13:42:44;12.20;82.80
83146;DHT22;73037;51.110;4.706;2023-11-19T13:45:14;12.20;83.00
83146;DHT22;73037;51.110;4.706;2023-11-19T13:47:44;12.20;82.60
83146;DHT22;73037;51.110;4.706;2023-11-19T13:50:11;12.20;81.90
83146;DHT22;73037;51.110;4.706;2023-11-19T13:52:38;12.20;82.90
83146;DHT22;73037;51.110;4.706;2023-11-19T13:55:06;12.10;82.80
83146;DHT22;73037;51.110;4.706;2023-11-19T13:57:33;12.00;82.60
83146;DHT22;73037;51.110;4.706;2023-11-19T14:00:00;11.90;83.00
83146;DHT22;73037;51.110;4.706;2023-11-19T14:02:25;11.90;82.90
83146;DHT22;73037;51.110;4.706;2023-11-19T14:04:51;11.90;83.20
83146;DHT22;73037;51.110;4.706;2023-11-19T14:07:17;11.90;82.80
83146;DHT22;73037;51.110;4.706;2023-11-19T14:09:45;11.90;82.00
83146;DHT22;73037;51.110;4.706;2023-11-19T14:12:11;11.90;83.10
83146;DHT22;73037;51.110;4.706;2023-11-19T14:14:38;11.90;83.30
83146;DHT22;73037;51.110;4.706;2023-11-19T14:17:05;11.90;82.70
83146;DHT22;73037;51.110;4.706;2023-11-19T14:19:30;11.90;82.60
83146;DHT22;73037;51.110;4.706;2023-11-19T14:21:56;12.00;82.60
83146;DHT22;73037;51.110;4.706;2023-11-19T14:24:23;12.10;82.30
83146;DHT22;73037;51.110;4.706;2023-11-19T14:26:49;12.20;82.60
83146;DHT22;73037;51.110;4.706;2023-11-19T14:29:18;12.20;81.80
83146;DHT22;73037;51.110;4.706;2023-11-19T14:31:43;12.10;80.90
83146;DHT22;73037;51.110;4.706;2023-11-19T14:34:09;12.10;82.50
83146;DHT22;73037;51.110;4.706;2023-11-19T14:36:35;12.10;80.60
83146;DHT22;73037;51.110;4.706;2023-11-19T14:39:01;12.10;81.40
83146;DHT22;73037;51.110;4.706;2023-11-19T14:41:26;12.10;82.60
83146;DHT22;73037;51.110;4.706;2023-11-19T14:43:52;12.10;82.20
83146;DHT22;73037;51.110;4.706;2023-11-19T14:46:18;12.00;82.30
83146;DHT22;73037;51.110;4.706;2023-11-19T14:48:44;12.00;82.90
83146;DHT22;73037;51.110;4.706;2023-11-19T14:51:10;12.00;83.00
83146;DHT22;73037;51.110;4.706;2023-11-19T14:53:35;12.00;82.90
83146;DHT22;73037;51.110;4.706;2023-11-19T14:56:01;11.90;82.80
83146;DHT22;73037;51.110;4.706;2023-11-19T14:58:27;11.90;82.90
83146;DHT22;73037;51.110;4.706;2023-11-19T15:00:53;11.90;83.30
83146;DHT22;73037;51.110;4.706;2023-11-19T15:03:19;11.90;83.50
83146;DHT22;73037;51.110;4.706;2023-11-19T15:05:47;11.90;83.70
83146;DHT22;73037;51.110;4.706;2023-11-19T15:08:16;11.80;83.00
83146;DHT22;73037;51.110;4.706;2023-11-19T15:10:45;11.80;83.70
83146;DHT22;73037;51.110;4.706;2023-11-19T15:13:12;11.70;83.10
83146;DHT22;73037;51.110;4.706;2023-11-19T15:15:37;11.70;83.40
83146;DHT22;73037;51.110;4.706;2023-11-19T15:18:04;11.70;83.40
83146;DHT22;73037;51.110;4.706;2023-11-19T15:20:30;11.60;83.30
83146;DHT22;73037;51.110;4.706;2023-11-19T15:22:57;11.60;83.40
83146;DHT22;73037;51.110;4.706;2023-11-19T15:25:23;11.60;83.70
83146;DHT22;73037;51.110;4.706;2023-11-19T15:27:49;11.70;83.90
83146;DHT22;73037;51.110;4.706;2023-11-19T15:30:15;11.70;83.20
83146;DHT22;73037;51.110;4.706;2023-11-19T15:32:42;11.70;83.20
83146;DHT22;73037;51.110;4.706;2023-11-19T15:35:11;11.60;83.20
83146;DHT22;73037;51.110;4.706;2023-11-19T15:37:38;11.70;83.90
83146;DHT22;73037;51.110;4.706;2023-11-19T15:40:09;11.70;83.30
83146;DHT22;73037;51.110;4.706;2023-11-19T15:42:38;11.70;83.10
83146;DHT22;73037;51.110;4.706;2023-11-19T15:45:05;11.70;83.20
83146;DHT22;73037;51.110;4.706;2023-11-19T15:47:32;11.70;82.90